sensor_id;sensor_type;location;lat;lon;timestamp;P1;durP1;ratioP1;P2;durP2;ratioP2
37657;SDS011;23500;53.268;8.308;2023-03-01T00:00:45;6.57;;;5.57;;
37657;SDS011;23500;53.268;8.308;2023-03-01T00:03:11;5.93;;;4.87;;
37657;SDS011;23500;53.268;8.308;2023-03-01T00:05:43;6.30;;;5.40;;
37657;SDS011;23500;53.268;8.308;2023-03-01T00:08:10;6.87;;;4.70;;
37657;SDS011;23500;53.268;8.308;2023-03-01T00:10:36;6.67;;;5.33;;
37657;SDS011;23500;53.268;8.308;2023-03-01T00:13:01;6.67;;;5.43;;
37657;SDS011;23500;53.268;8.308;2023-03-01T00:15:30;6.67;;;5.20;;
37657;SDS011;23500;53.268;8.308;2023-03-01T00:17:56;6.17;;;5.17;;
37657;SDS011;23500;53.268;8.308;2023-03-01T00:20:22;5.60;;;4.90;;
37657;SDS011;23500;53.268;8.308;2023-03-01T00:22:48;6.70;;;5.60;;
37657;SDS011;23500;53.268;8.308;2023-03-01T00:25:13;5.87;;;5.00;;
37657;SDS011;23500;53.268;8.308;2023-03-01T00:27:39;6.97;;;5.47;;
37657;SDS011;23500;53.268;8.308;2023-03-01T00:30:05;4.87;;;4.37;;
37657;SDS011;23500;53.268;8.308;2023-03-01T00:32:31;5.50;;;5.00;;
37657;SDS011;23500;53.268;8.308;2023-03-01T00:34:56;5.80;;;4.83;;
37657;SDS011;23500;53.268;8.308;2023-03-01T00:37:22;5.87;;;4.37;;
37657;SDS011;23500;53.268;8.308;2023-03-01T00:39:49;5.03;;;4.50;;
37657;SDS011;23500;53.268;8.308;2023-03-01T00:42:15;6.57;;;4.90;;
37657;SDS011;23500;53.268;8.308;2023-03-01T00:44:41;5.47;;;4.80;;
37657;SDS011;23500;53.268;8.308;2023-03-01T00:47:07;5.40;;;4.80;;
37657;SDS011;23500;53.268;8.308;2023-03-01T00:49:32;6.83;;;4.90;;
37657;SDS011;23500;53.268;8.308;2023-03-01T00:51:58;5.47;;;4.87;;
37657;SDS011;23500;53.268;8.308;2023-03-01T00:54:24;5.23;;;4.60;;
37657;SDS011;23500;53.268;8.308;2023-03-01T00:56:49;5.07;;;4.57;;
37657;SDS011;23500;53.268;8.308;2023-03-01T00:59:15;4.87;;;4.30;;
37657;SDS011;23500;53.268;8.308;2023-03-01T01:01:40;5.40;;;4.90;;
37657;SDS011;23500;53.268;8.308;2023-03-01T01:04:07;6.37;;;4.93;;
37657;SDS011;23500;53.268;8.308;2023-03-01T01:06:42;6.00;;;5.40;;
37657;SDS011;23500;53.268;8.308;2023-03-01T01:09:11;5.03;;;4.53;;
37657;SDS011;23500;53.268;8.308;2023-03-01T01:11:42;4.67;;;3.87;;
37657;SDS011;23500;53.268;8.308;2023-03-01T01:14:11;5.00;;;4.50;;
37657;SDS011;23500;53.268;8.308;2023-03-01T01:16:36;5.07;;;4.57;;
37657;SDS011;23500;53.268;8.308;2023-03-01T01:19:02;4.23;;;3.83;;
37657;SDS011;23500;53.268;8.308;2023-03-01T01:21:28;4.57;;;4.17;;
37657;SDS011;23500;53.268;8.308;2023-03-01T01:23:54;4.40;;;4.00;;
37657;SDS011;23500;53.268;8.308;2023-03-01T01:26:21;4.78;;;4.03;;
37657;SDS011;23500;53.268;8.308;2023-03-01T01:28:51;4.95;;;4.20;;
37657;SDS011;23500;53.268;8.308;2023-03-01T01:31:18;3.90;;;3.50;;
37657;SDS011;23500;53.268;8.308;2023-03-01T01:33:44;4.50;;;3.67;;
37657;SDS011;23500;53.268;8.308;2023-03-01T01:36:10;4.97;;;3.50;;
37657;SDS011;23500;53.268;8.308;2023-03-01T01:38:37;3.67;;;3.38;;
37657;SDS011;23500;53.268;8.308;2023-03-01T01:41:03;4.00;;;3.60;;
37657;SDS011;23500;53.268;8.308;2023-03-01T01:44:32;4.38;;;3.50;;
37657;SDS011;23500;53.268;8.308;2023-03-01T01:46:43;3.47;;;3.13;;
37657;SDS011;23500;53.268;8.308;2023-03-01T01:49:35;3.45;;;3.15;;
37657;SDS011;23500;53.268;8.308;2023-03-01T01:54:43;3.80;;;3.10;;
37657;SDS011;23500;53.268;8.308;2023-03-01T01:57:16;3.35;;;3.05;;
37657;SDS011;23500;53.268;8.308;2023-03-01T01:59:45;4.07;;;3.67;;
37657;SDS011;23500;53.268;8.308;2023-03-01T02:02:16;3.65;;;3.33;;
37657;SDS011;23500;53.268;8.308;2023-03-01T02:04:41;3.60;;;3.30;;
37657;SDS011;23500;53.268;8.308;2023-03-01T02:07:18;3.90;;;3.50;;
37657;SDS011;23500;53.268;8.308;2023-03-01T02:09:47;3.78;;;3.42;;
37657;SDS011;23500;53.268;8.308;2023-03-01T02:12:18;4.45;;;4.05;;
37657;SDS011;23500;53.268;8.308;2023-03-01T02:14:47;4.20;;;3.80;;
37657;SDS011;23500;53.268;8.308;2023-03-01T02:17:15;5.05;;;4.57;;
37657;SDS011;23500;53.268;8.308;2023-03-01T02:22:35;3.97;;;3.67;;
37657;SDS011;23500;53.268;8.308;2023-03-01T02:30:27;4.68;;;4.20;;
37657;SDS011;23500;53.268;8.308;2023-03-01T02:32:54;4.85;;;4.35;;
37657;SDS011;23500;53.268;8.308;2023-03-01T02:35:27;4.60;;;3.90;;
37657;SDS011;23500;53.268;8.308;2023-03-01T02:38:00;5.68;;;4.93;;
37657;SDS011;23500;53.268;8.308;2023-03-01T02:40:28;4.10;;;3.75;;
37657;SDS011;23500;53.268;8.308;2023-03-01T02:42:56;3.53;;;3.22;;
37657;SDS011;23500;53.268;8.308;2023-03-01T02:45:24;3.65;;;3.35;;
37657;SDS011;23500;53.268;8.308;2023-03-01T02:47:53;3.83;;;3.53;;
37657;SDS011;23500;53.268;8.308;2023-03-01T02:50:39;3.58;;;3.28;;
37657;SDS011;23500;53.268;8.308;2023-03-01T02:53:28;4.15;;;3.75;;
37657;SDS011;23500;53.268;8.308;2023-03-01T02:56:06;3.47;;;3.17;;
37657;SDS011;23500;53.268;8.308;2023-03-01T02:58:38;3.75;;;3.45;;
37657;SDS011;23500;53.268;8.308;2023-03-01T03:01:10;3.83;;;3.53;;
37657;SDS011;23500;53.268;8.308;2023-03-01T03:03:38;4.05;;;3.75;;
37657;SDS011;23500;53.268;8.308;2023-03-01T03:06:04;3.85;;;3.50;;
37657;SDS011;23500;53.268;8.308;2023-03-01T03:08:29;4.18;;;3.78;;
37657;SDS011;23500;53.268;8.308;2023-03-01T03:10:55;4.97;;;4.50;;
37657;SDS011;23500;53.268;8.308;2023-03-01T03:13:21;4.25;;;3.85;;
37657;SDS011;23500;53.268;8.308;2023-03-01T03:15:47;4.50;;;4.10;;
37657;SDS011;23500;53.268;8.308;2023-03-01T03:18:14;4.35;;;4.05;;
37657;SDS011;23500;53.268;8.308;2023-03-01T03:20:41;4.63;;;4.22;;
37657;SDS011;23500;53.268;8.308;2023-03-01T03:23:08;4.10;;;3.70;;
37657;SDS011;23500;53.268;8.308;2023-03-01T03:25:34;3.90;;;3.58;;
37657;SDS011;23500;53.268;8.308;2023-03-01T03:28:02;4.10;;;3.70;;
37657;SDS011;23500;53.268;8.308;2023-03-01T03:30:35;3.88;;;3.58;;
37657;SDS011;23500;53.268;8.308;2023-03-01T03:33:04;3.75;;;3.45;;
37657;SDS011;23500;53.268;8.308;2023-03-01T03:35:33;3.70;;;3.40;;
37657;SDS011;23500;53.268;8.308;2023-03-01T03:38:04;4.07;;;3.67;;
37657;SDS011;23500;53.268;8.308;2023-03-01T03:40:40;4.10;;;3.80;;
37657;SDS011;23500;53.268;8.308;2023-03-01T03:43:09;4.50;;;4.10;;
37657;SDS011;23500;53.268;8.308;2023-03-01T03:45:39;3.95;;;3.65;;
37657;SDS011;23500;53.268;8.308;2023-03-01T03:48:07;3.85;;;3.20;;
37657;SDS011;23500;53.268;8.308;2023-03-01T03:50:34;3.85;;;3.20;;
37657;SDS011;23500;53.268;8.308;2023-03-01T03:53:01;3.05;;;2.75;;
37657;SDS011;23500;53.268;8.308;2023-03-01T03:55:29;3.55;;;3.25;;
37657;SDS011;23500;53.268;8.308;2023-03-01T03:57:57;3.70;;;3.40;;
37657;SDS011;23500;53.268;8.308;2023-03-01T04:00:27;4.22;;;3.83;;
37657;SDS011;23500;53.268;8.308;2023-03-01T04:02:53;3.58;;;3.28;;
37657;SDS011;23500;53.268;8.308;2023-03-01T04:05:22;4.72;;;4.20;;
37657;SDS011;23500;53.268;8.308;2023-03-01T04:07:48;3.85;;;3.55;;
37657;SDS011;23500;53.268;8.308;2023-03-01T04:10:15;4.55;;;4.10;;
37657;SDS011;23500;53.268;8.308;2023-03-01T04:12:42;3.72;;;3.42;;
37657;SDS011;23500;53.268;8.308;2023-03-01T04:15:08;4.35;;;3.95;;
37657;SDS011;23500;53.268;8.308;2023-03-01T04:17:42;4.13;;;3.42;;
37657;SDS011;23500;53.268;8.308;2023-03-01T04:20:10;4.00;;;3.70;;
37657;SDS011;23500;53.268;8.308;2023-03-01T04:22:38;3.78;;;3.47;;
37657;SDS011;23500;53.268;8.308;2023-03-01T04:25:05;3.75;;;3.45;;
37657;SDS011;23500;53.268;8.308;2023-03-01T04:27:32;4.13;;;3.72;;
37657;SDS011;23500;53.268;8.308;2023-03-01T04:29:58;3.90;;;3.60;;
37657;SDS011;23500;53.268;8.308;2023-03-01T04:32:24;3.53;;;3.30;;
37657;SDS011;23500;53.268;8.308;2023-03-01T04:34:50;4.30;;;3.95;;
37657;SDS011;23500;53.268;8.308;2023-03-01T04:37:15;4.43;;;4.03;;
37657;SDS011;23500;53.268;8.308;2023-03-01T04:39:41;3.90;;;3.60;;
37657;SDS011;23500;53.268;8.308;2023-03-01T04:42:19;4.55;;;4.15;;
37657;SDS011;23500;53.268;8.308;2023-03-01T04:44:45;4.55;;;4.15;;
37657;SDS011;23500;53.268;8.308;2023-03-01T04:47:11;4.53;;;4.13;;
37657;SDS011;23500;53.268;8.308;2023-03-01T04:49:37;4.70;;;4.30;;
37657;SDS011;23500;53.268;8.308;2023-03-01T04:52:03;3.72;;;3.42;;
37657;SDS011;23500;53.268;8.308;2023-03-01T04:54:30;3.78;;;3.47;;
37657;SDS011;23500;53.268;8.308;2023-03-01T04:56:56;4.53;;;4.13;;
37657;SDS011;23500;53.268;8.308;2023-03-01T04:59:23;4.38;;;3.97;;
37657;SDS011;23500;53.268;8.308;2023-03-01T05:01:49;4.20;;;3.88;;
37657;SDS011;23500;53.268;8.308;2023-03-01T05:04:15;4.82;;;4.43;;
37657;SDS011;23500;53.268;8.308;2023-03-01T05:06:41;4.80;;;4.40;;
37657;SDS011;23500;53.268;8.308;2023-03-01T05:09:07;4.35;;;4.00;;
37657;SDS011;23500;53.268;8.308;2023-03-01T05:11:32;4.47;;;4.07;;
37657;SDS011;23500;53.268;8.308;2023-03-01T05:14:01;3.50;;;3.20;;
37657;SDS011;23500;53.268;8.308;2023-03-01T05:16:29;3.30;;;3.10;;
37657;SDS011;23500;53.268;8.308;2023-03-01T05:18:56;3.88;;;3.58;;
37657;SDS011;23500;53.268;8.308;2023-03-01T05:21:21;3.60;;;3.30;;
37657;SDS011;23500;53.268;8.308;2023-03-01T05:23:47;4.03;;;3.73;;
37657;SDS011;23500;53.268;8.308;2023-03-01T05:26:13;3.93;;;3.60;;
37657;SDS011;23500;53.268;8.308;2023-03-01T05:28:40;3.20;;;2.90;;
37657;SDS011;23500;53.268;8.308;2023-03-01T05:31:06;3.35;;;3.13;;
37657;SDS011;23500;53.268;8.308;2023-03-01T05:33:35;3.10;;;2.90;;
37657;SDS011;23500;53.268;8.308;2023-03-01T05:36:06;3.75;;;3.45;;
37657;SDS011;23500;53.268;8.308;2023-03-01T05:38:33;3.50;;;3.20;;
37657;SDS011;23500;53.268;8.308;2023-03-01T05:40:59;3.30;;;3.00;;
37657;SDS011;23500;53.268;8.308;2023-03-01T05:43:25;3.60;;;3.30;;
37657;SDS011;23500;53.268;8.308;2023-03-01T05:45:51;3.13;;;2.90;;
37657;SDS011;23500;53.268;8.308;2023-03-01T05:48:16;3.10;;;2.90;;
37657;SDS011;23500;53.268;8.308;2023-03-01T05:50:44;3.97;;;3.67;;
37657;SDS011;23500;53.268;8.308;2023-03-01T05:53:13;3.60;;;3.30;;
37657;SDS011;23500;53.268;8.308;2023-03-01T05:55:44;2.70;;;2.50;;
37657;SDS011;23500;53.268;8.308;2023-03-01T05:58:13;3.28;;;2.97;;
37657;SDS011;23500;53.268;8.308;2023-03-01T06:00:40;2.47;;;2.27;;
37657;SDS011;23500;53.268;8.308;2023-03-01T06:03:06;2.63;;;2.42;;
37657;SDS011;23500;53.268;8.308;2023-03-01T06:05:35;2.88;;;2.67;;
37657;SDS011;23500;53.268;8.308;2023-03-01T06:08:01;3.58;;;2.90;;
37657;SDS011;23500;53.268;8.308;2023-03-01T06:10:27;3.05;;;2.85;;
37657;SDS011;23500;53.268;8.308;2023-03-01T06:12:53;3.45;;;3.15;;
37657;SDS011;23500;53.268;8.308;2023-03-01T06:15:19;3.05;;;2.85;;
37657;SDS011;23500;53.268;8.308;2023-03-01T06:17:45;4.45;;;4.07;;
37657;SDS011;23500;53.268;8.308;2023-03-01T06:20:12;3.60;;;3.30;;
37657;SDS011;23500;53.268;8.308;2023-03-01T06:22:41;3.70;;;3.40;;
37657;SDS011;23500;53.268;8.308;2023-03-01T06:25:07;3.58;;;3.13;;
37657;SDS011;23500;53.268;8.308;2023-03-01T06:27:34;3.30;;;3.10;;
37657;SDS011;23500;53.268;8.308;2023-03-01T06:30:00;3.40;;;3.10;;
37657;SDS011;23500;53.268;8.308;2023-03-01T06:32:26;3.80;;;3.50;;
37657;SDS011;23500;53.268;8.308;2023-03-01T06:34:52;3.58;;;3.25;;
37657;SDS011;23500;53.268;8.308;2023-03-01T06:37:17;3.15;;;2.88;;
37657;SDS011;23500;53.268;8.308;2023-03-01T06:39:43;3.33;;;3.03;;
37657;SDS011;23500;53.268;8.308;2023-03-01T06:42:09;3.42;;;3.13;;
37657;SDS011;23500;53.268;8.308;2023-03-01T06:44:35;3.70;;;3.40;;
37657;SDS011;23500;53.268;8.308;2023-03-01T06:47:01;3.57;;;3.27;;
37657;SDS011;23500;53.268;8.308;2023-03-01T06:49:27;3.13;;;2.83;;
37657;SDS011;23500;53.268;8.308;2023-03-01T06:51:52;2.72;;;2.50;;
37657;SDS011;23500;53.268;8.308;2023-03-01T06:54:18;2.97;;;2.70;;
37657;SDS011;23500;53.268;8.308;2023-03-01T06:56:47;3.50;;;3.20;;
37657;SDS011;23500;53.268;8.308;2023-03-01T06:59:13;4.37;;;2.90;;
37657;SDS011;23500;53.268;8.308;2023-03-01T07:01:40;4.17;;;3.10;;
37657;SDS011;23500;53.268;8.308;2023-03-01T07:04:06;4.07;;;3.20;;
37657;SDS011;23500;53.268;8.308;2023-03-01T07:06:32;6.50;;;3.20;;
37657;SDS011;23500;53.268;8.308;2023-03-01T07:08:57;5.60;;;3.20;;
37657;SDS011;23500;53.268;8.308;2023-03-01T07:11:23;5.15;;;2.95;;
37657;SDS011;23500;53.268;8.308;2023-03-01T07:13:49;4.65;;;3.13;;
37657;SDS011;23500;53.268;8.308;2023-03-01T07:16:14;5.13;;;3.30;;
37657;SDS011;23500;53.268;8.308;2023-03-01T07:18:40;5.50;;;3.30;;
37657;SDS011;23500;53.268;8.308;2023-03-01T07:21:07;4.53;;;3.17;;
37657;SDS011;23500;53.268;8.308;2023-03-01T07:23:36;5.10;;;3.53;;
37657;SDS011;23500;53.268;8.308;2023-03-01T07:26:01;5.30;;;3.43;;
37657;SDS011;23500;53.268;8.308;2023-03-01T07:28:27;6.93;;;3.80;;
37657;SDS011;23500;53.268;8.308;2023-03-01T07:30:54;4.73;;;3.60;;
37657;SDS011;23500;53.268;8.308;2023-03-01T07:33:19;5.83;;;3.70;;
37657;SDS011;23500;53.268;8.308;2023-03-01T07:35:45;8.43;;;4.30;;
37657;SDS011;23500;53.268;8.308;2023-03-01T07:38:11;8.23;;;4.50;;
37657;SDS011;23500;53.268;8.308;2023-03-01T07:40:37;7.13;;;4.27;;
37657;SDS011;23500;53.268;8.308;2023-03-01T07:43:02;7.70;;;3.93;;
37657;SDS011;23500;53.268;8.308;2023-03-01T07:45:28;9.33;;;4.23;;
37657;SDS011;23500;53.268;8.308;2023-03-01T07:47:54;9.23;;;4.23;;
37657;SDS011;23500;53.268;8.308;2023-03-01T07:50:21;8.77;;;4.53;;
37657;SDS011;23500;53.268;8.308;2023-03-01T07:52:48;7.40;;;4.20;;
37657;SDS011;23500;53.268;8.308;2023-03-01T07:55:14;9.17;;;4.33;;
37657;SDS011;23500;53.268;8.308;2023-03-01T07:57:41;8.87;;;4.73;;
37657;SDS011;23500;53.268;8.308;2023-03-01T08:00:09;9.23;;;4.50;;
37657;SDS011;23500;53.268;8.308;2023-03-01T08:02:36;9.60;;;4.50;;
37657;SDS011;23500;53.268;8.308;2023-03-01T08:05:02;8.97;;;4.57;;
37657;SDS011;23500;53.268;8.308;2023-03-01T08:07:28;10.57;;;4.70;;
37657;SDS011;23500;53.268;8.308;2023-03-01T08:09:53;9.23;;;4.80;;
37657;SDS011;23500;53.268;8.308;2023-03-01T08:12:19;8.97;;;5.37;;
37657;SDS011;23500;53.268;8.308;2023-03-01T08:14:45;9.18;;;5.18;;
37657;SDS011;23500;53.268;8.308;2023-03-01T08:17:13;11.00;;;5.07;;
37657;SDS011;23500;53.268;8.308;2023-03-01T08:19:39;10.60;;;5.10;;
37657;SDS011;23500;53.268;8.308;2023-03-01T08:22:04;9.60;;;4.80;;
37657;SDS011;23500;53.268;8.308;2023-03-01T08:24:30;11.20;;;5.23;;
37657;SDS011;23500;53.268;8.308;2023-03-01T08:26:56;10.00;;;4.73;;
37657;SDS011;23500;53.268;8.308;2023-03-01T08:29:22;9.20;;;5.10;;
37657;SDS011;23500;53.268;8.308;2023-03-01T08:31:49;9.73;;;5.17;;
37657;SDS011;23500;53.268;8.308;2023-03-01T08:34:15;11.87;;;5.23;;
37657;SDS011;23500;53.268;8.308;2023-03-01T08:36:43;10.87;;;5.17;;
37657;SDS011;23500;53.268;8.308;2023-03-01T08:39:12;11.70;;;5.23;;
37657;SDS011;23500;53.268;8.308;2023-03-01T08:41:39;10.17;;;5.20;;
37657;SDS011;23500;53.268;8.308;2023-03-01T08:44:05;8.20;;;5.50;;
37657;SDS011;23500;53.268;8.308;2023-03-01T08:46:35;11.43;;;5.80;;
37657;SDS011;23500;53.268;8.308;2023-03-01T08:49:07;12.73;;;5.57;;
37657;SDS011;23500;53.268;8.308;2023-03-01T08:51:34;10.50;;;5.23;;
37657;SDS011;23500;53.268;8.308;2023-03-01T08:54:05;9.53;;;5.20;;
37657;SDS011;23500;53.268;8.308;2023-03-01T08:56:32;10.50;;;5.57;;
37657;SDS011;23500;53.268;8.308;2023-03-01T08:58:58;10.73;;;5.37;;
37657;SDS011;23500;53.268;8.308;2023-03-01T09:01:23;12.80;;;5.43;;
37657;SDS011;23500;53.268;8.308;2023-03-01T09:03:49;10.87;;;5.10;;
37657;SDS011;23500;53.268;8.308;2023-03-01T09:06:15;10.80;;;5.37;;
37657;SDS011;23500;53.268;8.308;2023-03-01T09:08:42;11.70;;;5.50;;
37657;SDS011;23500;53.268;8.308;2023-03-01T09:11:13;11.77;;;5.27;;
37657;SDS011;23500;53.268;8.308;2023-03-01T09:13:41;9.93;;;5.40;;
37657;SDS011;23500;53.268;8.308;2023-03-01T09:16:08;8.70;;;5.60;;
37657;SDS011;23500;53.268;8.308;2023-03-01T09:18:35;9.77;;;5.40;;
37657;SDS011;23500;53.268;8.308;2023-03-01T09:21:04;8.90;;;5.43;;
37657;SDS011;23500;53.268;8.308;2023-03-01T09:23:39;10.60;;;5.53;;
37657;SDS011;23500;53.268;8.308;2023-03-01T09:26:06;10.83;;;5.40;;
37657;SDS011;23500;53.268;8.308;2023-03-01T09:28:38;9.17;;;5.27;;
37657;SDS011;23500;53.268;8.308;2023-03-01T09:31:05;10.87;;;5.87;;
37657;SDS011;23500;53.268;8.308;2023-03-01T09:33:31;8.63;;;5.17;;
37657;SDS011;23500;53.268;8.308;2023-03-01T09:35:58;10.27;;;5.10;;
37657;SDS011;23500;53.268;8.308;2023-03-01T09:38:25;11.33;;;5.37;;
37657;SDS011;23500;53.268;8.308;2023-03-01T09:40:51;9.43;;;5.27;;
37657;SDS011;23500;53.268;8.308;2023-03-01T09:43:21;10.30;;;5.27;;
37657;SDS011;23500;53.268;8.308;2023-03-01T09:45:52;9.80;;;4.97;;
37657;SDS011;23500;53.268;8.308;2023-03-01T09:48:20;9.50;;;5.37;;
37657;SDS011;23500;53.268;8.308;2023-03-01T09:50:48;8.50;;;5.40;;
37657;SDS011;23500;53.268;8.308;2023-03-01T09:53:16;10.33;;;5.37;;
37657;SDS011;23500;53.268;8.308;2023-03-01T10:01:40;10.93;;;5.20;;
37657;SDS011;23500;53.268;8.308;2023-03-01T10:04:39;9.00;;;5.30;;
37657;SDS011;23500;53.268;8.308;2023-03-01T10:10:26;9.03;;;5.67;;
37657;SDS011;23500;53.268;8.308;2023-03-01T10:12:58;11.93;;;5.43;;
37657;SDS011;23500;53.268;8.308;2023-03-01T10:15:35;10.57;;;4.70;;
37657;SDS011;23500;53.268;8.308;2023-03-01T10:18:18;9.77;;;5.30;;
37657;SDS011;23500;53.268;8.308;2023-03-01T10:20:53;9.23;;;5.13;;
37657;SDS011;23500;53.268;8.308;2023-03-01T10:23:25;11.67;;;5.27;;
37657;SDS011;23500;53.268;8.308;2023-03-01T10:26:05;8.67;;;5.17;;
37657;SDS011;23500;53.268;8.308;2023-03-01T10:28:54;8.63;;;4.67;;
37657;SDS011;23500;53.268;8.308;2023-03-01T10:31:25;8.70;;;4.90;;
37657;SDS011;23500;53.268;8.308;2023-03-01T10:34:01;8.93;;;4.83;;
37657;SDS011;23500;53.268;8.308;2023-03-01T10:36:30;10.53;;;5.53;;
37657;SDS011;23500;53.268;8.308;2023-03-01T10:38:58;8.73;;;4.83;;
37657;SDS011;23500;53.268;8.308;2023-03-01T10:41:25;7.57;;;4.53;;
37657;SDS011;23500;53.268;8.308;2023-03-01T10:43:52;9.23;;;5.50;;
37657;SDS011;23500;53.268;8.308;2023-03-01T10:46:23;7.00;;;4.90;;
37657;SDS011;23500;53.268;8.308;2023-03-01T10:49:27;8.53;;;4.60;;
37657;SDS011;23500;53.268;8.308;2023-03-01T10:51:51;9.17;;;4.80;;
37657;SDS011;23500;53.268;8.308;2023-03-01T10:54:31;8.88;;;4.50;;
37657;SDS011;23500;53.268;8.308;2023-03-01T10:57:02;8.27;;;4.72;;
37657;SDS011;23500;53.268;8.308;2023-03-01T11:05:02;8.82;;;4.80;;
37657;SDS011;23500;53.268;8.308;2023-03-01T11:07:51;7.50;;;4.25;;
37657;SDS011;23500;53.268;8.308;2023-03-01T11:10:28;7.10;;;4.40;;
37657;SDS011;23500;53.268;8.308;2023-03-01T11:13:07;9.43;;;4.68;;
37657;SDS011;23500;53.268;8.308;2023-03-01T11:15:41;8.13;;;4.60;;
37657;SDS011;23500;53.268;8.308;2023-03-01T11:18:21;6.63;;;4.07;;
37657;SDS011;23500;53.268;8.308;2023-03-01T11:20:48;7.03;;;4.25;;
37657;SDS011;23500;53.268;8.308;2023-03-01T11:23:16;5.90;;;3.97;;
37657;SDS011;23500;53.268;8.308;2023-03-01T11:25:43;6.88;;;4.28;;
37657;SDS011;23500;53.268;8.308;2023-03-01T11:28:15;7.63;;;4.18;;
37657;SDS011;23500;53.268;8.308;2023-03-01T11:30:55;5.80;;;3.90;;
37657;SDS011;23500;53.268;8.308;2023-03-01T11:36:19;7.63;;;3.92;;
37657;SDS011;23500;53.268;8.308;2023-03-01T11:39:42;6.47;;;4.20;;
37657;SDS011;23500;53.268;8.308;2023-03-01T11:42:02;5.70;;;4.03;;
37657;SDS011;23500;53.268;8.308;2023-03-01T11:44:43;7.30;;;4.03;;
37657;SDS011;23500;53.268;8.308;2023-03-01T11:52:31;6.22;;;3.70;;
37657;SDS011;23500;53.268;8.308;2023-03-01T12:03:44;4.65;;;3.42;;
37657;SDS011;23500;53.268;8.308;2023-03-01T12:15:23;5.53;;;3.50;;
37657;SDS011;23500;53.268;8.308;2023-03-01T12:23:48;4.68;;;3.42;;
37657;SDS011;23500;53.268;8.308;2023-03-01T12:26:35;5.05;;;3.47;;
37657;SDS011;23500;53.268;8.308;2023-03-01T12:50:54;5.43;;;3.70;;
37657;SDS011;23500;53.268;8.308;2023-03-01T12:53:28;5.07;;;3.28;;
37657;SDS011;23500;53.268;8.308;2023-03-01T12:56:08;5.95;;;3.25;;
37657;SDS011;23500;53.268;8.308;2023-03-01T13:06:57;3.90;;;2.95;;
37657;SDS011;23500;53.268;8.308;2023-03-01T13:20:47;3.90;;;3.10;;
37657;SDS011;23500;53.268;8.308;2023-03-01T13:31:55;4.82;;;3.20;;
37657;SDS011;23500;53.268;8.308;2023-03-01T13:38:56;4.63;;;3.28;;
37657;SDS011;23500;53.268;8.308;2023-03-01T13:52:06;3.95;;;3.13;;
37657;SDS011;23500;53.268;8.308;2023-03-01T13:54:47;3.40;;;2.83;;
37657;SDS011;23500;53.268;8.308;2023-03-01T13:57:13;4.00;;;3.00;;
37657;SDS011;23500;53.268;8.308;2023-03-01T13:59:47;4.43;;;2.95;;
37657;SDS011;23500;53.268;8.308;2023-03-01T14:02:13;4.40;;;3.00;;
37657;SDS011;23500;53.268;8.308;2023-03-01T14:04:40;4.00;;;3.10;;
37657;SDS011;23500;53.268;8.308;2023-03-01T14:07:16;3.25;;;2.90;;
37657;SDS011;23500;53.268;8.308;2023-03-01T14:09:44;3.65;;;2.90;;
37657;SDS011;23500;53.268;8.308;2023-03-01T14:17:42;4.10;;;2.90;;
37657;SDS011;23500;53.268;8.308;2023-03-01T14:20:39;5.30;;;2.55;;
37657;SDS011;23500;53.268;8.308;2023-03-01T14:23:09;3.25;;;2.88;;
37657;SDS011;23500;53.268;8.308;2023-03-01T14:25:46;4.75;;;2.78;;
37657;SDS011;23500;53.268;8.308;2023-03-01T14:28:28;4.10;;;3.17;;
37657;SDS011;23500;53.268;8.308;2023-03-01T14:31:00;4.53;;;3.08;;
37657;SDS011;23500;53.268;8.308;2023-03-01T14:33:27;4.15;;;2.75;;
37657;SDS011;23500;53.268;8.308;2023-03-01T14:38:31;2.58;;;2.38;;
37657;SDS011;23500;53.268;8.308;2023-03-01T14:41:03;4.70;;;3.08;;
37657;SDS011;23500;53.268;8.308;2023-03-01T14:43:37;3.72;;;2.90;;
37657;SDS011;23500;53.268;8.308;2023-03-01T14:46:05;4.70;;;2.92;;
37657;SDS011;23500;53.268;8.308;2023-03-01T14:48:31;3.13;;;2.78;;
37657;SDS011;23500;53.268;8.308;2023-03-01T14:50:57;3.20;;;2.90;;
37657;SDS011;23500;53.268;8.308;2023-03-01T14:53:25;3.90;;;2.80;;
37657;SDS011;23500;53.268;8.308;2023-03-01T14:55:59;3.72;;;3.13;;
37657;SDS011;23500;53.268;8.308;2023-03-01T14:58:28;3.83;;;2.85;;
37657;SDS011;23500;53.268;8.308;2023-03-01T15:00:58;4.07;;;3.20;;
37657;SDS011;23500;53.268;8.308;2023-03-01T15:03:27;4.07;;;2.75;;
37657;SDS011;23500;53.268;8.308;2023-03-01T15:05:59;2.85;;;2.53;;
37657;SDS011;23500;53.268;8.308;2023-03-01T15:08:26;3.78;;;3.00;;
37657;SDS011;23500;53.268;8.308;2023-03-01T15:13:28;4.82;;;3.13;;
37657;SDS011;23500;53.268;8.308;2023-03-01T15:16:18;3.53;;;2.95;;
37657;SDS011;23500;53.268;8.308;2023-03-01T15:19:00;3.33;;;2.88;;
37657;SDS011;23500;53.268;8.308;2023-03-01T15:21:36;3.28;;;2.95;;
37657;SDS011;23500;53.268;8.308;2023-03-01T15:24:07;3.40;;;3.10;;
37657;SDS011;23500;53.268;8.308;2023-03-01T15:26:56;3.25;;;2.95;;
37657;SDS011;23500;53.268;8.308;2023-03-01T15:29:32;4.18;;;2.80;;
37657;SDS011;23500;53.268;8.308;2023-03-01T15:32:24;4.00;;;3.00;;
37657;SDS011;23500;53.268;8.308;2023-03-01T15:34:55;3.25;;;2.90;;
37657;SDS011;23500;53.268;8.308;2023-03-01T15:40:26;3.70;;;3.22;;
37657;SDS011;23500;53.268;8.308;2023-03-01T15:42:58;3.25;;;2.88;;
37657;SDS011;23500;53.268;8.308;2023-03-01T15:45:26;3.05;;;2.75;;
37657;SDS011;23500;53.268;8.308;2023-03-01T15:47:54;3.67;;;3.10;;
37657;SDS011;23500;53.268;8.308;2023-03-01T15:50:33;3.30;;;2.95;;
37657;SDS011;23500;53.268;8.308;2023-03-01T15:53:01;3.28;;;2.67;;
37657;SDS011;23500;53.268;8.308;2023-03-01T15:55:33;4.18;;;2.90;;
37657;SDS011;23500;53.268;8.308;2023-03-01T15:58:12;3.17;;;2.80;;
37657;SDS011;23500;53.268;8.308;2023-03-01T16:00:39;3.40;;;2.70;;
37657;SDS011;23500;53.268;8.308;2023-03-01T16:03:05;3.97;;;2.92;;
37657;SDS011;23500;53.268;8.308;2023-03-01T16:05:34;3.90;;;2.65;;
37657;SDS011;23500;53.268;8.308;2023-03-01T16:08:01;2.63;;;2.40;;
37657;SDS011;23500;53.268;8.308;2023-03-01T16:10:27;2.92;;;2.63;;
37657;SDS011;23500;53.268;8.308;2023-03-01T16:12:53;3.10;;;2.75;;
37657;SDS011;23500;53.268;8.308;2023-03-01T16:15:26;3.22;;;2.92;;
37657;SDS011;23500;53.268;8.308;2023-03-01T16:17:54;2.95;;;2.70;;
37657;SDS011;23500;53.268;8.308;2023-03-01T16:20:20;2.88;;;2.50;;
37657;SDS011;23500;53.268;8.308;2023-03-01T16:22:47;2.83;;;2.45;;
37657;SDS011;23500;53.268;8.308;2023-03-01T16:25:14;4.53;;;2.65;;
37657;SDS011;23500;53.268;8.308;2023-03-01T16:27:41;3.08;;;2.72;;
37657;SDS011;23500;53.268;8.308;2023-03-01T16:30:08;2.60;;;2.40;;
37657;SDS011;23500;53.268;8.308;2023-03-01T16:32:38;3.83;;;2.97;;
37657;SDS011;23500;53.268;8.308;2023-03-01T16:35:05;3.10;;;2.45;;
37657;SDS011;23500;53.268;8.308;2023-03-01T16:37:31;2.85;;;2.65;;
37657;SDS011;23500;53.268;8.308;2023-03-01T16:39:58;2.95;;;2.65;;
37657;SDS011;23500;53.268;8.308;2023-03-01T16:42:24;2.78;;;2.53;;
37657;SDS011;23500;53.268;8.308;2023-03-01T16:44:54;3.08;;;2.78;;
37657;SDS011;23500;53.268;8.308;2023-03-01T16:47:21;2.92;;;2.65;;
37657;SDS011;23500;53.268;8.308;2023-03-01T16:49:47;2.75;;;2.55;;
37657;SDS011;23500;53.268;8.308;2023-03-01T16:52:16;3.33;;;2.50;;
37657;SDS011;23500;53.268;8.308;2023-03-01T16:54:41;3.10;;;2.75;;
37657;SDS011;23500;53.268;8.308;2023-03-01T16:57:07;3.53;;;2.78;;
37657;SDS011;23500;53.268;8.308;2023-03-01T16:59:33;2.60;;;2.40;;
37657;SDS011;23500;53.268;8.308;2023-03-01T17:01:58;2.78;;;2.40;;
37657;SDS011;23500;53.268;8.308;2023-03-01T17:04:24;3.00;;;2.70;;
37657;SDS011;23500;53.268;8.308;2023-03-01T17:06:50;2.70;;;2.40;;
37657;SDS011;23500;53.268;8.308;2023-03-01T17:09:15;3.30;;;2.90;;
37657;SDS011;23500;53.268;8.308;2023-03-01T17:11:42;3.13;;;2.80;;
37657;SDS011;23500;53.268;8.308;2023-03-01T17:14:08;3.20;;;2.90;;